Terminal Aerodrome Forecast
Issued by NWS

Home | Current Version | Previous Version | Text Only | Print | Product List | Glossary On
Versions: 1 2 3 4 5 6 7 8 9 10 11 12 13 14 15 16 17 18 19 20 21 22 23 24 25 26 27
000
FTUS43 KDLH 161200 AAB
TAFHYR
TAF AMD
KHYR 161244Z 1613/1712 10004KT 3/4SM -SN VV017
     FM161500 11013G20KT 3/4SM -SN OVC007
     FM161800 09014G22KT 1/4SM +SN OVC007
     FM170100 04014G22KT 1/4SM +SN OVC007
     FM170600 36013KT 1SM -SN OVC007=

USA.gov is the U.S. government's official web portal to all federal, state and local government web resources and services.